LVBWN SASA-SASA
Flight info
| Callsign | LVBWN |
|---|---|
| Flight time | 0h 44m |
| Altitude | 13000 |
| Route | DCT SAL DCT |
| Aircraft | B36T/L-S/C |
Departure
| Time | 2026-05-05 23:24 |
|---|---|
| Airport | Martín Miguel de Güemes International Airport (SASA) |
Arrival
| Time | 2026-05-06 00:08 |
|---|---|
| Airport | Martín Miguel de Güemes International Airport (SASA) |
| Time | Latitude | Longitude | Altitude | Speed | Heading |
|---|---|---|---|---|---|
| 2026-05-05 23:19 | -24.84451 | -65.48053 | 4031 ft | 0 kts | 176° |
| 2026-05-05 23:20 | -24.84477 | -65.48049 | 4032 ft | 11 kts | 173° |
| 2026-05-05 23:20 | -24.84537 | -65.48088 | 4033 ft | 10 kts | 244° |
| 2026-05-05 23:20 | -24.84562 | -65.48172 | 4037 ft | 14 kts | 252° |
| 2026-05-05 23:20 | -24.84597 | -65.48290 | 4040 ft | 21 kts | 250° |
| 2026-05-05 23:21 | -24.84723 | -65.48428 | 4042 ft | 31 kts | 202° |
| 2026-05-05 23:21 | -24.84959 | -65.48485 | 4047 ft | 38 kts | 191° |
| 2026-05-05 23:21 | -24.85237 | -65.48546 | 4052 ft | 43 kts | 191° |
| 2026-05-05 23:21 | -24.85544 | -65.48614 | 4058 ft | 46 kts | 191° |
| 2026-05-05 23:22 | -24.85874 | -65.48685 | 4062 ft | 49 kts | 192° |
| 2026-05-05 23:22 | -24.86212 | -65.48758 | 4067 ft | 50 kts | 192° |
| 2026-05-05 23:22 | -24.86502 | -65.48822 | 4074 ft | 50 kts | 190° |
| 2026-05-05 23:22 | -24.86837 | -65.48894 | 4082 ft | 48 kts | 192° |
| 2026-05-05 23:23 | -24.87077 | -65.48951 | 4089 ft | 27 kts | 193° |
| 2026-05-05 23:23 | -24.87217 | -65.48992 | 4092 ft | 18 kts | 193° |
| 2026-05-05 23:23 | -24.87235 | -65.48982 | 4093 ft | 11 kts | 12° |
| 2026-05-05 23:23 | -24.86869 | -65.48901 | 4087 ft | 97 kts | 11° |
| 2026-05-05 23:24 | -24.86137 | -65.48751 | 4491 ft | 110 kts | 11° |
| 2026-05-05 23:24 | -24.85397 | -65.48586 | 5096 ft | 106 kts | 8° |
| 2026-05-05 23:24 | -24.84666 | -65.48499 | 5540 ft | 122 kts | 9° |
| 2026-05-05 23:24 | -24.83727 | -65.48313 | 5884 ft | 136 kts | 11° |
| 2026-05-05 23:25 | -24.82791 | -65.48101 | 6395 ft | 140 kts | 12° |
| 2026-05-05 23:25 | -24.81844 | -65.47800 | 6851 ft | 144 kts | 19° |
| 2026-05-05 23:25 | -24.80952 | -65.47426 | 7297 ft | 134 kts | 21° |
| 2026-05-05 23:25 | -24.80247 | -65.47142 | 7678 ft | 127 kts | 19° |
| 2026-05-05 23:26 | -24.79377 | -65.46879 | 8150 ft | 129 kts | 12° |
| 2026-05-05 23:26 | -24.78490 | -65.46736 | 8632 ft | 129 kts | 8° |
| 2026-05-05 23:26 | -24.77603 | -65.46603 | 9114 ft | 128 kts | 13° |
| 2026-05-05 23:26 | -24.76940 | -65.46037 | 9609 ft | 125 kts | 63° |
| 2026-05-05 23:27 | -24.76642 | -65.45136 | 10061 ft | 129 kts | 77° |
| 2026-05-05 23:27 | -24.76635 | -65.44126 | 10393 ft | 138 kts | 98° |
| 2026-05-05 23:27 | -24.77048 | -65.43181 | 10736 ft | 147 kts | 139° |
| 2026-05-05 23:27 | -24.78041 | -65.42912 | 11087 ft | 155 kts | 191° |
| 2026-05-05 23:28 | -24.79073 | -65.43300 | 11443 ft | 159 kts | 203° |
| 2026-05-05 23:28 | -24.80081 | -65.43839 | 11799 ft | 162 kts | 208° |
| 2026-05-05 23:28 | -24.81081 | -65.44437 | 12158 ft | 165 kts | 210° |
| 2026-05-05 23:28 | -24.82121 | -65.44983 | 12518 ft | 167 kts | 201° |
| 2026-05-05 23:29 | -24.83249 | -65.45377 | 12778 ft | 175 kts | 198° |
| 2026-05-05 23:29 | -24.84449 | -65.45805 | 12903 ft | 187 kts | 200° |
| 2026-05-05 23:29 | -24.85723 | -65.46169 | 12954 ft | 197 kts | 191° |
| 2026-05-05 23:29 | -24.87094 | -65.46446 | 12978 ft | 203 kts | 192° |
| 2026-05-05 23:30 | -24.88490 | -65.46781 | 12987 ft | 207 kts | 195° |
| 2026-05-05 23:30 | -24.89890 | -65.47197 | 12993 ft | 210 kts | 196° |
| 2026-05-05 23:30 | -24.91316 | -65.47558 | 12992 ft | 211 kts | 191° |
| 2026-05-05 23:30 | -24.92774 | -65.47449 | 12991 ft | 212 kts | 168° |
| 2026-05-05 23:31 | -24.94193 | -65.47031 | 12994 ft | 211 kts | 163° |
| 2026-05-05 23:31 | -24.95604 | -65.46595 | 12992 ft | 210 kts | 167° |
| 2026-05-05 23:31 | -24.97036 | -65.46287 | 12996 ft | 210 kts | 173° |
| 2026-05-05 23:31 | -24.98236 | -65.46128 | 12992 ft | 209 kts | 174° |
| 2026-05-05 23:32 | -24.99679 | -65.45905 | 12991 ft | 210 kts | 171° |
| 2026-05-05 23:32 | -25.01117 | -65.45625 | 12993 ft | 210 kts | 171° |
| 2026-05-05 23:32 | -25.02556 | -65.45361 | 12993 ft | 210 kts | 172° |
| 2026-05-05 23:32 | -25.03998 | -65.45119 | 12991 ft | 210 kts | 172° |
| 2026-05-05 23:33 | -25.05441 | -65.44871 | 12993 ft | 210 kts | 172° |
| 2026-05-05 23:33 | -25.06887 | -65.44613 | 12990 ft | 210 kts | 171° |
| 2026-05-05 23:33 | -25.08330 | -65.44357 | 12987 ft | 210 kts | 172° |
| 2026-05-05 23:33 | -25.09758 | -65.44111 | 12986 ft | 210 kts | 172° |
| 2026-05-05 23:34 | -25.11202 | -65.43858 | 12985 ft | 210 kts | 172° |
| 2026-05-05 23:34 | -25.12647 | -65.43603 | 12984 ft | 210 kts | 172° |
| 2026-05-05 23:34 | -25.14092 | -65.43351 | 12982 ft | 210 kts | 172° |
| 2026-05-05 23:34 | -25.15538 | -65.43098 | 12981 ft | 210 kts | 172° |
| 2026-05-05 23:35 | -25.16987 | -65.42844 | 12980 ft | 211 kts | 172° |
| 2026-05-05 23:35 | -25.18433 | -65.42592 | 12978 ft | 211 kts | 172° |
| 2026-05-05 23:35 | -25.19882 | -65.42337 | 12978 ft | 211 kts | 172° |
| 2026-05-05 23:35 | -25.21310 | -65.42086 | 12977 ft | 211 kts | 172° |
| 2026-05-05 23:36 | -25.22763 | -65.41832 | 12975 ft | 211 kts | 172° |
| 2026-05-05 23:36 | -25.24215 | -65.41578 | 12977 ft | 212 kts | 172° |
| 2026-05-05 23:36 | -25.25673 | -65.41365 | 12972 ft | 211 kts | 181° |
| 2026-05-05 23:36 | -25.27054 | -65.41822 | 12978 ft | 208 kts | 208° |
| 2026-05-05 23:37 | -25.28321 | -65.42591 | 12978 ft | 208 kts | 212° |
| 2026-05-05 23:37 | -25.29559 | -65.43418 | 12973 ft | 208 kts | 214° |
| 2026-05-05 23:37 | -25.30785 | -65.44263 | 12975 ft | 208 kts | 214° |
| 2026-05-05 23:37 | -25.31990 | -65.45108 | 12975 ft | 208 kts | 214° |
| 2026-05-05 23:38 | -25.33317 | -65.45721 | 12972 ft | 211 kts | 187° |
| 2026-05-05 23:38 | -25.34733 | -65.45397 | 12970 ft | 211 kts | 150° |
| 2026-05-05 23:38 | -25.35714 | -65.44230 | 12971 ft | 209 kts | 113° |
| 2026-05-05 23:38 | -25.35884 | -65.42673 | 12974 ft | 205 kts | 76° |
| 2026-05-05 23:39 | -25.35200 | -65.41341 | 12974 ft | 200 kts | 44° |
| 2026-05-05 23:39 | -25.34186 | -65.40285 | 12978 ft | 200 kts | 38° |
| 2026-05-05 23:39 | -25.32938 | -65.39696 | 12974 ft | 197 kts | 3° |
| 2026-05-05 23:39 | -25.31568 | -65.39719 | 12976 ft | 197 kts | 355° |
| 2026-05-05 23:40 | -25.30206 | -65.39905 | 12978 ft | 197 kts | 350° |
| 2026-05-05 23:40 | -25.28875 | -65.40175 | 12976 ft | 197 kts | 348° |
| 2026-05-05 23:40 | -25.27544 | -65.40531 | 12972 ft | 197 kts | 345° |
| 2026-05-05 23:40 | -25.26215 | -65.40913 | 12994 ft | 198 kts | 345° |
| 2026-05-05 23:41 | -25.24870 | -65.41295 | 13014 ft | 200 kts | 345° |
| 2026-05-05 23:41 | -25.23525 | -65.41673 | 12997 ft | 199 kts | 345° |
| 2026-05-05 23:41 | -25.22166 | -65.41967 | 12987 ft | 199 kts | 351° |
| 2026-05-05 23:41 | -25.20798 | -65.42172 | 12982 ft | 198 kts | 351° |
| 2026-05-05 23:42 | -25.19438 | -65.42398 | 12982 ft | 198 kts | 350° |
| 2026-05-05 23:42 | -25.18084 | -65.42651 | 12981 ft | 197 kts | 349° |
| 2026-05-05 23:42 | -25.16749 | -65.42892 | 12982 ft | 197 kts | 350° |
| 2026-05-05 23:42 | -25.15393 | -65.43124 | 12982 ft | 197 kts | 350° |
| 2026-05-05 23:43 | -25.14039 | -65.43357 | 12987 ft | 197 kts | 350° |
| 2026-05-05 23:43 | -25.12684 | -65.43596 | 12988 ft | 197 kts | 350° |
| 2026-05-05 23:43 | -25.11330 | -65.43835 | 12989 ft | 197 kts | 350° |
| 2026-05-05 23:43 | -25.09974 | -65.44073 | 12991 ft | 197 kts | 350° |
| 2026-05-05 23:44 | -25.08618 | -65.44308 | 12992 ft | 197 kts | 350° |
| 2026-05-05 23:44 | -25.07261 | -65.44546 | 12990 ft | 198 kts | 350° |
| 2026-05-05 23:44 | -25.05904 | -65.44785 | 12994 ft | 198 kts | 350° |
| 2026-05-05 23:44 | -25.04543 | -65.45021 | 12888 ft | 203 kts | 350° |
| 2026-05-05 23:45 | -25.03145 | -65.45266 | 12660 ft | 204 kts | 351° |
| 2026-05-05 23:45 | -25.01757 | -65.45509 | 12363 ft | 200 kts | 351° |
| 2026-05-05 23:45 | -25.00396 | -65.45746 | 12082 ft | 196 kts | 351° |
| 2026-05-05 23:45 | -24.99055 | -65.45981 | 11796 ft | 194 kts | 351° |
| 2026-05-05 23:46 | -24.97722 | -65.46215 | 11513 ft | 193 kts | 352° |
| 2026-05-05 23:46 | -24.96397 | -65.46445 | 11258 ft | 192 kts | 352° |
| 2026-05-05 23:46 | -24.95063 | -65.46676 | 11123 ft | 195 kts | 352° |
| 2026-05-05 23:46 | -24.93727 | -65.46912 | 11060 ft | 194 kts | 352° |
| 2026-05-05 23:47 | -24.92410 | -65.47139 | 11033 ft | 193 kts | 352° |
| 2026-05-05 23:47 | -24.91096 | -65.47367 | 11010 ft | 190 kts | 352° |
| 2026-05-05 23:47 | -24.89792 | -65.47597 | 11008 ft | 189 kts | 352° |
| 2026-05-05 23:47 | -24.88493 | -65.47824 | 11005 ft | 189 kts | 352° |
| 2026-05-05 23:48 | -24.87200 | -65.48048 | 11003 ft | 188 kts | 352° |
| 2026-05-05 23:48 | -24.85910 | -65.48271 | 11001 ft | 188 kts | 352° |
| 2026-05-05 23:48 | -24.84622 | -65.48493 | 11003 ft | 187 kts | 352° |
| 2026-05-05 23:48 | -24.83347 | -65.48401 | 11001 ft | 186 kts | 24° |
| 2026-05-05 23:49 | -24.82343 | -65.47540 | 11004 ft | 187 kts | 44° |
| 2026-05-05 23:49 | -24.81460 | -65.46488 | 11005 ft | 187 kts | 48° |
| 2026-05-05 23:49 | -24.80619 | -65.45394 | 11005 ft | 188 kts | 50° |
| 2026-05-05 23:49 | -24.79798 | -65.44278 | 11003 ft | 187 kts | 53° |
| 2026-05-05 23:50 | -24.79457 | -65.42919 | 11000 ft | 190 kts | 94° |
| 2026-05-05 23:50 | -24.80017 | -65.41628 | 10997 ft | 193 kts | 134° |
| 2026-05-05 23:50 | -24.81220 | -65.41019 | 10998 ft | 195 kts | 174° |
| 2026-05-05 23:50 | -24.82516 | -65.41379 | 10999 ft | 196 kts | 213° |
| 2026-05-05 23:51 | -24.83324 | -65.42547 | 11003 ft | 195 kts | 253° |
| 2026-05-05 23:51 | -24.83306 | -65.43983 | 11005 ft | 192 kts | 287° |
| 2026-05-05 23:51 | -24.83125 | -65.45435 | 11002 ft | 194 kts | 264° |
| 2026-05-05 23:51 | -24.83692 | -65.46769 | 11002 ft | 196 kts | 233° |
| 2026-05-05 23:52 | -24.84600 | -65.47889 | 11004 ft | 196 kts | 228° |
| 2026-05-05 23:52 | -24.85523 | -65.48993 | 11000 ft | 196 kts | 224° |
| 2026-05-05 23:52 | -24.86746 | -65.49598 | 10998 ft | 196 kts | 184° |
| 2026-05-05 23:52 | -24.88037 | -65.49233 | 10995 ft | 194 kts | 144° |
| 2026-05-05 23:53 | -24.88817 | -65.48072 | 10997 ft | 190 kts | 104° |
| 2026-05-05 23:53 | -24.88732 | -65.46664 | 10999 ft | 187 kts | 65° |
| 2026-05-05 23:53 | -24.88095 | -65.45420 | 11004 ft | 186 kts | 56° |
| 2026-05-05 23:53 | -24.87367 | -65.44262 | 11006 ft | 187 kts | 53° |
| 2026-05-05 23:54 | -24.86595 | -65.43110 | 11002 ft | 187 kts | 52° |
| 2026-05-05 23:54 | -24.85809 | -65.41970 | 11001 ft | 187 kts | 52° |
| 2026-05-05 23:54 | -24.85011 | -65.40825 | 10998 ft | 187 kts | 52° |
| 2026-05-05 23:54 | -24.84078 | -65.39884 | 10997 ft | 187 kts | 24° |
| 2026-05-05 23:55 | -24.83014 | -65.39752 | 10995 ft | 187 kts | 350° |
| 2026-05-05 23:55 | -24.81917 | -65.40496 | 10997 ft | 190 kts | 309° |
| 2026-05-05 23:55 | -24.81460 | -65.41858 | 11000 ft | 192 kts | 281° |
| 2026-05-05 23:55 | -24.81639 | -65.43304 | 10998 ft | 194 kts | 246° |
| 2026-05-05 23:56 | -24.82286 | -65.44607 | 11002 ft | 195 kts | 233° |
| 2026-05-05 23:56 | -24.83141 | -65.45741 | 11003 ft | 195 kts | 229° |
| 2026-05-05 23:56 | -24.84061 | -65.46843 | 11002 ft | 196 kts | 227° |
| 2026-05-05 23:56 | -24.85011 | -65.47923 | 11001 ft | 196 kts | 226° |
| 2026-05-05 23:57 | -24.85926 | -65.49034 | 10999 ft | 196 kts | 231° |
| 2026-05-05 23:57 | -24.86915 | -65.50052 | 10996 ft | 197 kts | 207° |
| 2026-05-05 23:57 | -24.88239 | -65.50450 | 10903 ft | 198 kts | 189° |
| 2026-05-05 23:57 | -24.89555 | -65.50862 | 10785 ft | 198 kts | 207° |
| 2026-05-05 23:58 | -24.90748 | -65.51611 | 10670 ft | 198 kts | 211° |
| 2026-05-05 23:58 | -24.91939 | -65.52368 | 10561 ft | 198 kts | 208° |
| 2026-05-05 23:58 | -24.93150 | -65.53048 | 10426 ft | 199 kts | 206° |
| 2026-05-05 23:58 | -24.94364 | -65.53736 | 10244 ft | 194 kts | 207° |
| 2026-05-05 23:59 | -24.95538 | -65.54430 | 10064 ft | 188 kts | 208° |
| 2026-05-05 23:59 | -24.96672 | -65.55102 | 9873 ft | 182 kts | 207° |
| 2026-05-05 23:59 | -24.97780 | -65.55747 | 9672 ft | 179 kts | 207° |
| 2026-05-05 23:59 | -24.98873 | -65.56381 | 9450 ft | 177 kts | 207° |
| 2026-05-06 00:00 | -24.99964 | -65.57022 | 9203 ft | 178 kts | 207° |
| 2026-05-06 00:00 | -25.01057 | -65.57666 | 8963 ft | 178 kts | 207° |
| 2026-05-06 00:00 | -25.02168 | -65.58259 | 8720 ft | 177 kts | 194° |
| 2026-05-06 00:00 | -25.03339 | -65.58120 | 8477 ft | 174 kts | 150° |
| 2026-05-06 00:01 | -25.04228 | -65.57250 | 8248 ft | 170 kts | 128° |
| 2026-05-06 00:01 | -25.04934 | -65.56215 | 8035 ft | 169 kts | 121° |
| 2026-05-06 00:01 | -25.05336 | -65.55028 | 7799 ft | 166 kts | 92° |
| 2026-05-06 00:01 | -25.05168 | -65.53791 | 7570 ft | 164 kts | 66° |
| 2026-05-06 00:02 | -25.04589 | -65.52727 | 7328 ft | 163 kts | 39° |
| 2026-05-06 00:02 | -25.03554 | -65.52276 | 7156 ft | 159 kts | 13° |
| 2026-05-06 00:02 | -25.02482 | -65.52107 | 7067 ft | 153 kts | 3° |
| 2026-05-06 00:02 | -25.01442 | -65.52081 | 7033 ft | 147 kts | 0° |
| 2026-05-06 00:03 | -25.00435 | -65.52092 | 6899 ft | 150 kts | 359° |
| 2026-05-06 00:03 | -24.99364 | -65.52115 | 6667 ft | 156 kts | 359° |
| 2026-05-06 00:03 | -24.98283 | -65.52107 | 6430 ft | 151 kts | 10° |
| 2026-05-06 00:03 | -24.97354 | -65.51665 | 6308 ft | 141 kts | 27° |
| 2026-05-06 00:04 | -24.96558 | -65.51170 | 6217 ft | 122 kts | 29° |
| 2026-05-06 00:04 | -24.95829 | -65.50809 | 5986 ft | 113 kts | 15° |
| 2026-05-06 00:04 | -24.95077 | -65.50676 | 5765 ft | 108 kts | 8° |
| 2026-05-06 00:04 | -24.94368 | -65.50571 | 5579 ft | 94 kts | 10° |
| 2026-05-06 00:05 | -24.93126 | -65.50291 | 5021 ft | 95 kts | 13° |
| 2026-05-06 00:05 | -24.92507 | -65.50133 | 4933 ft | 86 kts | 14° |
| 2026-05-06 00:05 | -24.91934 | -65.50002 | 4924 ft | 86 kts | 9° |
| 2026-05-06 00:06 | -24.91330 | -65.49899 | 4909 ft | 90 kts | 9° |
| 2026-05-06 00:06 | -24.90705 | -65.49752 | 4856 ft | 96 kts | 13° |
| 2026-05-06 00:06 | -24.90062 | -65.49566 | 4728 ft | 97 kts | 15° |
| 2026-05-06 00:06 | -24.89397 | -65.49404 | 4577 ft | 98 kts | 6° |
| 2026-05-06 00:07 | -24.88750 | -65.49300 | 4545 ft | 92 kts | 9° |
| 2026-05-06 00:07 | -24.88101 | -65.49173 | 4420 ft | 95 kts | 9° |
| 2026-05-06 00:07 | -24.87453 | -65.49034 | 4300 ft | 96 kts | 10° |
| 2026-05-06 00:07 | -24.86787 | -65.48888 | 4128 ft | 97 kts | 11° |
| 2026-05-06 00:08 | -24.86160 | -65.48749 | 4072 ft | 85 kts | 10° |
| 2026-05-06 00:08 | -24.85625 | -65.48629 | 4060 ft | 70 kts | 9° |
| 2026-05-06 00:08 | -24.85236 | -65.48548 | 4052 ft | 46 kts | 9° |
| 2026-05-06 00:08 | -24.84967 | -65.48489 | 4047 ft | 34 kts | 12° |
| 2026-05-06 00:09 | -24.84797 | -65.48456 | 4044 ft | 22 kts | 7° |
| 2026-05-06 00:09 | -24.84670 | -65.48392 | 4041 ft | 20 kts | 46° |
| 2026-05-06 00:09 | -24.84603 | -65.48305 | 4040 ft | 0 kts | 72° |
| 2026-05-06 00:10 | -24.84601 | -65.48296 | 4040 ft | 5 kts | 77° |
| 2026-05-06 00:10 | -24.84599 | -65.48287 | 4040 ft | 5 kts | 71° |
| 2026-05-06 00:11 | -24.84567 | -65.48187 | 4037 ft | 17 kts | 73° |
| 2026-05-06 00:11 | -24.84528 | -65.48057 | 4032 ft | 20 kts | 71° |
| 2026-05-06 00:11 | -24.84505 | -65.48019 | 4030 ft | 9 kts | 245° |
| 2026-05-06 00:11 | -24.84474 | -65.48049 | 4031 ft | 12 kts | 353° |
| 2026-05-06 00:12 | -24.84372 | -65.48059 | 4031 ft | 15 kts | 11° |
| 2026-05-06 00:12 | -24.84336 | -65.48054 | 4030 ft | 0 kts | 234° |